createdAt,value
2018-09-17T00:00:49.850Z,4.92
2018-09-17T00:03:17.561Z,5.80
2018-09-17T00:05:45.275Z,5.30
2018-09-17T00:08:12.969Z,4.53
2018-09-17T00:10:40.657Z,5.00
2018-09-17T00:13:08.392Z,5.70
2018-09-17T00:15:36.110Z,5.13
2018-09-17T00:18:03.771Z,4.83
2018-09-17T00:23:11.076Z,5.60
2018-09-17T00:25:38.782Z,5.33
2018-09-17T00:28:06.462Z,4.30
2018-09-17T00:30:34.094Z,5.42
2018-09-17T00:33:01.748Z,4.53
2018-09-17T00:35:29.394Z,5.23
2018-09-17T00:37:56.957Z,4.33
2018-09-17T00:40:24.588Z,5.20
2018-09-17T00:42:52.249Z,4.80
2018-09-17T00:45:19.885Z,5.03
2018-09-17T00:47:47.545Z,3.87
2018-09-17T00:50:15.313Z,4.60
2018-09-17T00:52:43.077Z,4.90
2018-09-17T00:55:10.762Z,5.13
2018-09-17T00:57:38.559Z,4.73
2018-09-17T01:00:06.365Z,5.17
2018-09-17T01:02:34.057Z,5.85
2018-09-17T01:05:01.784Z,5.58
2018-09-17T01:07:29.510Z,6.17
2018-09-17T01:09:57.090Z,5.30
2018-09-17T01:12:24.738Z,5.00
2018-09-17T01:14:52.399Z,5.47
2018-09-17T01:17:20.089Z,6.22
2018-09-17T01:19:47.764Z,5.10
2018-09-17T01:22:15.384Z,6.10
2018-09-17T01:24:43.012Z,5.70
2018-09-17T01:27:10.697Z,5.95
2018-09-17T01:29:38.348Z,5.63
2018-09-17T01:32:06.122Z,5.47
2018-09-17T01:34:33.810Z,6.00
2018-09-17T01:37:01.475Z,5.47
2018-09-17T01:39:29.172Z,4.80
2018-09-17T01:41:56.808Z,5.80
2018-09-17T01:44:24.515Z,6.10
2018-09-17T01:46:52.160Z,6.35
2018-09-17T01:49:19.876Z,5.17
2018-09-17T01:51:47.561Z,6.10
2018-09-17T01:54:15.181Z,6.10
2018-09-17T01:56:42.841Z,5.67
2018-09-17T01:59:10.601Z,6.13
2018-09-17T02:01:38.254Z,6.47
2018-09-17T02:04:05.923Z,6.90
2018-09-17T02:06:33.526Z,6.33
2018-09-17T02:09:01.264Z,7.15
2018-09-17T02:11:28.933Z,6.27
2018-09-17T02:13:56.624Z,6.63
2018-09-17T02:16:24.245Z,6.40
2018-09-17T02:18:51.937Z,7.13
2018-09-17T02:21:19.651Z,7.20
2018-09-17T02:23:47.394Z,7.60
2018-09-17T02:26:15.067Z,6.63
2018-09-17T02:28:42.666Z,6.90
2018-09-17T02:31:10.322Z,6.73
2018-09-17T02:33:37.945Z,6.45
2018-09-17T02:36:06.528Z,7.07
2018-09-17T02:38:34.171Z,6.70
2018-09-17T02:41:01.816Z,7.35
2018-09-17T02:43:29.508Z,7.90
2018-09-17T02:45:57.138Z,7.43
2018-09-17T02:48:24.854Z,7.53
2018-09-17T02:50:52.478Z,7.37
2018-09-17T02:53:20.142Z,7.00
2018-09-17T02:55:47.873Z,6.92
2018-09-17T02:58:15.572Z,8.03
2018-09-17T03:00:43.266Z,8.00
2018-09-17T03:03:10.966Z,7.27
2018-09-17T03:05:38.632Z,6.97
2018-09-17T03:08:06.258Z,8.23
2018-09-17T03:10:34.004Z,7.10
2018-09-17T03:13:01.739Z,6.60
2018-09-17T03:15:48.173Z,7.28
2018-09-17T03:18:21.435Z,6.87
2018-09-17T03:20:49.309Z,7.77
2018-09-17T03:23:16.972Z,8.63
2018-09-17T03:25:44.632Z,7.27
2018-09-17T03:28:12.257Z,7.05
2018-09-17T03:30:39.959Z,6.40
2018-09-17T03:33:07.661Z,6.57
2018-09-17T03:35:35.277Z,6.20
2018-09-17T03:38:26.494Z,6.33
2018-09-17T03:40:54.154Z,7.27
2018-09-17T03:43:21.754Z,6.80
2018-09-17T03:45:49.727Z,7.67
2018-09-17T03:48:17.582Z,6.92
2018-09-17T03:50:45.515Z,6.90
2018-09-17T03:53:13.284Z,7.75
2018-09-17T03:55:41.054Z,6.37
2018-09-17T03:58:08.735Z,8.05
2018-09-17T04:00:36.474Z,8.13
2018-09-17T04:03:04.170Z,7.10
2018-09-17T04:05:31.830Z,7.13
2018-09-17T04:07:59.563Z,6.70
2018-09-17T04:10:27.212Z,7.85
2018-09-17T04:12:55.640Z,7.53
2018-09-17T04:15:23.364Z,7.90
2018-09-17T04:17:51.054Z,8.03
2018-09-17T04:20:18.771Z,7.53
2018-09-17T04:22:46.431Z,6.87
2018-09-17T04:25:14.505Z,7.63
2018-09-17T04:27:42.242Z,6.15
2018-09-17T04:30:10.002Z,7.30
2018-09-17T04:32:37.861Z,6.70
2018-09-17T04:35:06.615Z,7.50
2018-09-17T04:37:35.207Z,8.30
2018-09-17T04:40:02.901Z,7.40
2018-09-17T04:42:30.543Z,7.72
2018-09-17T04:44:58.285Z,7.97
2018-09-17T04:47:25.976Z,7.53
2018-09-17T04:49:53.805Z,7.63
2018-09-17T04:52:21.454Z,6.83
2018-09-17T04:54:49.104Z,7.43
2018-09-17T04:57:16.872Z,8.20
2018-09-17T04:59:44.429Z,7.87
2018-09-17T05:02:12.139Z,7.03
2018-09-17T05:04:39.882Z,9.00
2018-09-17T05:07:07.611Z,8.73
2018-09-17T05:09:35.414Z,7.30
2018-09-17T05:12:05.695Z,6.73
2018-09-17T05:14:33.369Z,6.90
2018-09-17T05:17:01.195Z,6.73
2018-09-17T05:19:28.922Z,6.92
2018-09-17T05:21:56.603Z,7.20
2018-09-17T05:24:24.252Z,7.40
2018-09-17T05:26:51.958Z,7.40
2018-09-17T05:29:19.581Z,6.60
2018-09-17T05:31:47.272Z,6.73
2018-09-17T05:34:14.944Z,7.15
2018-09-17T05:36:42.669Z,5.97
2018-09-17T05:39:11.068Z,7.50
2018-09-17T05:41:38.865Z,7.83
2018-09-17T05:44:06.745Z,8.30
2018-09-17T05:46:34.898Z,8.77
2018-09-17T05:49:02.689Z,7.80
2018-09-17T05:51:30.337Z,8.97
2018-09-17T05:53:58.132Z,8.23
2018-09-17T05:56:25.789Z,7.80
2018-09-17T05:58:53.643Z,9.05
2018-09-17T06:01:21.408Z,8.07
2018-09-17T06:03:49.139Z,7.63
2018-09-17T06:06:16.899Z,6.77
2018-09-17T06:08:44.534Z,8.77
2018-09-17T06:11:12.192Z,6.90
2018-09-17T06:13:39.880Z,7.72
2018-09-17T06:16:07.542Z,7.43
2018-09-17T06:18:35.595Z,7.37
2018-09-17T06:21:03.762Z,8.00
2018-09-17T06:23:31.429Z,7.73
2018-09-17T06:25:59.051Z,6.80
2018-09-17T06:28:26.676Z,11.05
2018-09-17T06:30:54.341Z,10.93
2018-09-17T06:33:22.007Z,13.27
2018-09-17T06:35:49.663Z,9.03
2018-09-17T06:38:17.287Z,14.35
2018-09-17T06:40:44.955Z,6.67
2018-09-17T06:43:12.637Z,7.50
2018-09-17T06:45:40.374Z,11.60
2018-09-17T06:48:08.050Z,8.77
2018-09-17T06:50:35.703Z,7.03
2018-09-17T06:53:03.598Z,8.00
2018-09-17T06:55:31.967Z,6.63
2018-09-17T06:57:59.644Z,6.97
2018-09-17T07:00:27.330Z,6.13
2018-09-17T07:02:56.092Z,6.42
2018-09-17T07:05:23.829Z,6.67
2018-09-17T07:07:51.518Z,7.80
2018-09-17T07:10:19.259Z,7.08
2018-09-17T07:12:47.144Z,5.90
2018-09-17T07:15:14.786Z,5.92
2018-09-17T07:17:42.989Z,6.37
2018-09-17T07:20:10.696Z,5.35
2018-09-17T07:22:38.341Z,5.42
2018-09-17T07:25:06.955Z,4.90
2018-09-17T07:27:34.497Z,6.00
2018-09-17T07:30:02.189Z,5.90
2018-09-17T07:32:29.905Z,6.70
2018-09-17T07:34:57.542Z,6.10
2018-09-17T07:37:25.230Z,5.10
2018-09-17T07:39:52.886Z,6.00
2018-09-17T07:42:20.597Z,5.37
2018-09-17T07:44:48.278Z,5.62
2018-09-17T07:47:15.977Z,4.77
2018-09-17T07:49:43.654Z,6.13
2018-09-17T07:52:11.317Z,5.47
2018-09-17T07:54:38.937Z,4.60
2018-09-17T07:57:06.788Z,5.03
2018-09-17T07:59:34.479Z,4.40
2018-09-17T08:02:02.098Z,5.10
2018-09-17T08:04:29.989Z,4.92
2018-09-17T08:06:57.625Z,4.65
2018-09-17T08:09:25.266Z,4.33
2018-09-17T08:11:53.053Z,4.47
2018-09-17T08:14:20.679Z,4.93
2018-09-17T08:16:48.482Z,4.87
2018-09-17T08:19:16.141Z,4.80
2018-09-17T08:21:43.809Z,4.55
2018-09-17T08:24:11.463Z,3.90
2018-09-17T08:26:39.141Z,4.40
2018-09-17T08:29:07.042Z,4.60
2018-09-17T08:31:34.686Z,4.10
2018-09-17T08:34:02.336Z,3.37
2018-09-17T08:36:30.017Z,4.23
2018-09-17T08:38:57.859Z,4.07
2018-09-17T08:41:25.507Z,3.83
2018-09-17T08:43:53.202Z,4.05
2018-09-17T08:46:20.866Z,3.83
2018-09-17T08:48:48.521Z,3.80
2018-09-17T08:51:16.202Z,4.27
2018-09-17T08:53:43.794Z,3.87
2018-09-17T08:56:17.391Z,4.20
2018-09-17T08:58:50.994Z,3.50
2018-09-17T09:01:24.216Z,2.50
2018-09-17T09:03:57.925Z,3.43
2018-09-17T09:06:28.574Z,4.10
2018-09-17T09:08:56.221Z,3.40
2018-09-17T09:11:29.578Z,3.13
2018-09-17T09:14:01.850Z,3.70
2018-09-17T09:16:29.474Z,2.90
2018-09-17T09:18:57.171Z,3.35
2018-09-17T09:21:25.293Z,3.08
2018-09-17T09:23:53.005Z,3.57
2018-09-17T09:26:20.782Z,3.70
2018-09-17T09:28:48.429Z,3.58
2018-09-17T09:31:16.054Z,3.83
2018-09-17T09:33:43.688Z,2.77
2018-09-17T09:36:11.396Z,3.80
2018-09-17T09:38:39.065Z,3.30
2018-09-17T09:41:06.822Z,3.15
2018-09-17T09:43:34.491Z,3.23
2018-09-17T09:46:02.338Z,3.53
2018-09-17T09:48:30.000Z,2.67
2018-09-17T09:50:57.624Z,3.37
2018-09-17T09:53:25.465Z,2.65
2018-09-17T09:55:53.156Z,2.47
2018-09-17T09:58:20.772Z,2.50
2018-09-17T10:00:54.281Z,2.42
2018-09-17T10:03:26.547Z,2.87
2018-09-17T10:05:54.181Z,2.60
2018-09-17T10:08:21.875Z,3.62
2018-09-17T10:10:55.408Z,2.60
2018-09-17T10:13:28.733Z,2.37
2018-09-17T10:15:57.220Z,2.20
2018-09-17T10:18:30.638Z,3.27
2018-09-17T10:20:58.906Z,2.27
2018-09-17T10:23:26.759Z,2.37
2018-09-17T10:25:54.420Z,2.83
2018-09-17T10:28:22.339Z,2.27
2018-09-17T10:30:49.984Z,2.23
2018-09-17T10:33:17.849Z,2.10
2018-09-17T10:35:45.561Z,2.22
2018-09-17T10:38:13.261Z,2.50
2018-09-17T10:40:40.948Z,2.10
2018-09-17T10:43:08.672Z,2.73
2018-09-17T10:45:36.645Z,2.03
2018-09-17T10:48:04.375Z,2.43
2018-09-17T10:50:32.063Z,2.10
2018-09-17T10:52:59.801Z,2.33
2018-09-17T10:55:27.505Z,2.37
2018-09-17T10:57:55.133Z,1.90
2018-09-17T11:00:23.325Z,2.30
2018-09-17T11:02:51.159Z,2.05
2018-09-17T11:05:18.783Z,2.77
2018-09-17T11:07:46.551Z,2.20
2018-09-17T11:10:14.244Z,2.17
2018-09-17T11:12:42.053Z,1.90
2018-09-17T11:15:09.781Z,1.83
2018-09-17T11:17:37.503Z,2.52
2018-09-17T11:20:06.129Z,2.00
2018-09-17T11:22:33.816Z,2.00
2018-09-17T11:25:01.459Z,2.47
2018-09-17T11:27:29.181Z,2.58
2018-09-17T11:29:56.874Z,2.70
2018-09-17T11:32:24.603Z,2.40
2018-09-17T11:34:52.313Z,1.90
2018-09-17T11:37:20.000Z,2.13
2018-09-17T11:39:47.692Z,2.30
2018-09-17T11:42:15.396Z,2.40
2018-09-17T11:44:43.044Z,2.17
2018-09-17T11:47:10.841Z,1.83
2018-09-17T11:49:38.682Z,1.97
2018-09-17T11:52:06.446Z,2.20
2018-09-17T11:54:34.178Z,1.93
2018-09-17T11:57:01.896Z,2.20
2018-09-17T11:59:29.615Z,2.10
2018-09-17T12:02:03.620Z,1.67
2018-09-17T12:04:36.056Z,2.33
2018-09-17T12:07:09.519Z,1.80
2018-09-17T12:09:38.223Z,1.60
2018-09-17T12:12:05.934Z,1.90
2018-09-17T12:14:33.653Z,2.07
2018-09-17T12:17:01.323Z,1.30
2018-09-17T12:19:29.014Z,1.67
2018-09-17T12:21:56.734Z,1.60
2018-09-17T12:24:24.366Z,1.60
2018-09-17T12:26:52.075Z,2.93
2018-09-17T12:29:19.748Z,3.02
2018-09-17T12:31:47.500Z,1.37
2018-09-17T12:34:15.111Z,2.47
2018-09-17T12:36:42.750Z,1.60
2018-09-17T12:39:11.543Z,1.30
2018-09-17T12:41:39.190Z,1.30
2018-09-17T12:44:06.874Z,1.60
2018-09-17T12:46:34.504Z,1.52
2018-09-17T12:49:02.153Z,1.23
2018-09-17T12:51:29.812Z,1.77
2018-09-17T12:53:57.568Z,2.07
2018-09-17T12:56:25.256Z,1.98
2018-09-17T12:58:52.916Z,1.80
2018-09-17T13:01:20.760Z,2.07
2018-09-17T13:03:48.595Z,1.80
2018-09-17T13:06:16.207Z,2.17
2018-09-17T13:08:43.924Z,1.87
2018-09-17T13:11:11.705Z,1.40
2018-09-17T13:13:39.471Z,2.00
2018-09-17T13:16:07.819Z,1.60
2018-09-17T13:18:35.596Z,1.75
2018-09-17T13:21:03.378Z,1.40
2018-09-17T13:23:32.860Z,1.73
2018-09-17T13:26:00.513Z,1.50
2018-09-17T13:28:28.185Z,1.70
2018-09-17T13:30:55.809Z,1.50
2018-09-17T13:33:23.629Z,1.50
2018-09-17T13:35:51.611Z,1.60
2018-09-17T13:38:20.813Z,1.97
2018-09-17T13:40:48.451Z,1.90
2018-09-17T13:43:16.122Z,1.65
2018-09-17T13:45:43.779Z,1.82
2018-09-17T13:48:11.414Z,1.80
2018-09-17T13:50:39.145Z,1.83
2018-09-17T13:53:06.784Z,2.03
2018-09-17T13:55:34.494Z,1.90
2018-09-17T13:58:02.197Z,1.62
2018-09-17T14:00:29.938Z,1.90
2018-09-17T14:02:57.615Z,2.13
2018-09-17T14:05:25.380Z,2.17
2018-09-17T14:07:53.115Z,2.23
2018-09-17T14:10:20.993Z,1.70
2018-09-17T14:12:48.639Z,1.43
2018-09-17T14:15:16.376Z,1.82
2018-09-17T14:17:44.138Z,1.37
2018-09-17T14:20:11.796Z,1.70
2018-09-17T14:22:39.598Z,1.70
2018-09-17T14:25:07.395Z,1.42
2018-09-17T14:27:35.086Z,1.57
2018-09-17T14:30:02.789Z,1.50
2018-09-17T14:32:36.169Z,1.60
2018-09-17T14:35:03.926Z,1.77
2018-09-17T14:37:31.671Z,1.90
2018-09-17T14:39:59.386Z,1.35
2018-09-17T14:42:27.144Z,1.27
2018-09-17T14:44:54.771Z,1.75
2018-09-17T14:47:22.435Z,1.80
2018-09-17T14:49:50.132Z,2.10
2018-09-17T14:52:17.844Z,2.07
2018-09-17T14:54:45.654Z,1.98
2018-09-17T14:57:13.271Z,2.30
2018-09-17T14:59:41.016Z,1.83
2018-09-17T15:02:08.935Z,2.70
2018-09-17T15:04:36.554Z,1.70
2018-09-17T15:07:04.236Z,2.03
2018-09-17T15:09:31.871Z,1.80
2018-09-17T15:11:59.590Z,2.08
2018-09-17T15:14:27.317Z,2.60
2018-09-17T15:16:54.955Z,1.75
2018-09-17T15:19:22.578Z,2.35
2018-09-17T15:21:50.337Z,2.20
2018-09-17T15:24:17.970Z,1.63
2018-09-17T15:26:46.186Z,1.83
2018-09-17T15:29:13.894Z,1.77
2018-09-17T15:31:41.513Z,2.10
2018-09-17T15:34:09.168Z,1.53
2018-09-17T15:36:36.829Z,2.10
2018-09-17T15:39:08.860Z,2.10
2018-09-17T15:41:37.144Z,2.60
2018-09-17T15:44:05.002Z,2.10
2018-09-17T15:46:33.233Z,2.10
2018-09-17T15:49:00.910Z,2.50
2018-09-17T15:51:28.617Z,1.90
2018-09-17T15:53:56.336Z,2.58
2018-09-17T15:56:24.400Z,2.60
2018-09-17T15:58:52.214Z,2.17
2018-09-17T16:01:20.018Z,2.35
2018-09-17T16:03:47.738Z,2.75
2018-09-17T16:06:15.469Z,2.57
2018-09-17T16:08:43.225Z,3.90
2018-09-17T16:11:11.043Z,3.30
2018-09-17T16:13:38.856Z,7.90
2018-09-17T16:16:06.536Z,4.00
2018-09-17T16:18:34.307Z,3.57
2018-09-17T16:21:01.979Z,4.60
2018-09-17T16:23:29.719Z,4.40
2018-09-17T16:25:57.449Z,3.90
2018-09-17T16:28:25.188Z,4.13
2018-09-17T16:30:52.933Z,3.30
2018-09-17T16:33:20.890Z,3.27
2018-09-17T16:35:48.658Z,3.83
2018-09-17T16:38:16.457Z,4.43
2018-09-17T16:40:44.187Z,3.63
2018-09-17T16:43:11.933Z,3.90
2018-09-17T16:45:39.712Z,4.72
2018-09-17T16:48:07.434Z,4.20
2018-09-17T16:50:35.131Z,4.63
2018-09-17T16:53:02.986Z,3.90
2018-09-17T16:55:30.655Z,3.72
2018-09-17T16:57:58.517Z,3.42
2018-09-17T17:00:26.234Z,3.33
2018-09-17T17:02:53.988Z,3.83
2018-09-17T17:05:22.420Z,4.37
2018-09-17T17:07:51.150Z,4.03
2018-09-17T17:10:19.386Z,3.60
2018-09-17T17:12:47.053Z,4.07
2018-09-17T17:15:14.749Z,3.60
2018-09-17T17:17:42.417Z,3.95
2018-09-17T17:20:10.230Z,4.03
2018-09-17T17:22:37.976Z,4.30
2018-09-17T17:25:05.836Z,4.50
2018-09-17T17:27:33.607Z,3.70
2018-09-17T17:30:01.646Z,4.20
2018-09-17T17:32:29.719Z,4.40
2018-09-17T17:34:58.610Z,4.62
2018-09-17T17:37:26.611Z,4.23
2018-09-17T17:39:54.397Z,4.03
2018-09-17T17:42:22.089Z,3.90
2018-09-17T17:44:49.807Z,4.40
2018-09-17T17:47:17.494Z,4.40
2018-09-17T17:49:45.181Z,4.50
2018-09-17T17:52:12.938Z,4.80
2018-09-17T17:54:40.737Z,4.87
2018-09-17T17:57:08.323Z,5.53
2018-09-17T17:59:35.989Z,4.78
2018-09-17T18:02:03.662Z,4.83
2018-09-17T18:04:31.403Z,5.17
2018-09-17T18:06:59.064Z,5.90
2018-09-17T18:09:26.836Z,5.67
2018-09-17T18:11:54.469Z,5.27
2018-09-17T18:14:22.086Z,4.80
2018-09-17T18:16:49.747Z,4.40
2018-09-17T18:19:17.452Z,5.47
2018-09-17T18:21:45.281Z,4.72
2018-09-17T18:24:12.873Z,4.17
2018-09-17T18:26:40.810Z,4.37
2018-09-17T18:29:08.556Z,3.60
2018-09-17T18:31:36.379Z,5.20
2018-09-17T18:34:04.329Z,3.40
2018-09-17T18:36:31.992Z,4.30
2018-09-17T18:38:59.754Z,4.90
2018-09-17T18:41:27.383Z,5.07
2018-09-17T18:43:55.072Z,4.78
2018-09-17T18:46:22.783Z,4.53
2018-09-17T18:48:50.559Z,4.60
2018-09-17T18:51:18.998Z,4.90
2018-09-17T18:53:47.103Z,4.33
2018-09-17T18:56:16.320Z,4.83
2018-09-17T18:58:46.211Z,6.40
2018-09-17T19:01:16.776Z,6.00
2018-09-17T19:03:44.469Z,4.93
2018-09-17T19:06:12.384Z,5.70
2018-09-17T19:08:40.522Z,5.23
2018-09-17T19:11:08.320Z,5.27
2018-09-17T19:13:36.195Z,5.07
2018-09-17T19:16:03.928Z,5.23
2018-09-17T19:18:31.673Z,4.42
2018-09-17T19:21:06.946Z,5.67
2018-09-17T19:23:40.258Z,5.20
2018-09-17T19:26:07.957Z,5.00
2018-09-17T19:28:41.440Z,5.23
2018-09-17T19:31:09.242Z,5.83
2018-09-17T19:33:36.852Z,5.67
2018-09-17T19:36:04.970Z,5.60
2018-09-17T19:38:39.067Z,4.77
2018-09-17T19:41:07.095Z,4.57
2018-09-17T19:43:34.849Z,5.40
2018-09-17T19:46:08.342Z,5.63
2018-09-17T19:48:36.049Z,5.70
2018-09-17T19:51:09.901Z,5.57
2018-09-17T19:53:37.656Z,6.20
2018-09-17T19:56:05.633Z,6.37
2018-09-17T19:59:38.622Z,5.60
2018-09-17T20:02:06.865Z,5.33
2018-09-17T20:04:40.673Z,7.00
2018-09-17T20:07:08.651Z,6.70
2018-09-17T20:09:37.027Z,7.57
2018-09-17T20:12:05.436Z,7.50
2018-09-17T20:14:33.309Z,7.20
2018-09-17T20:17:01.344Z,6.53
2018-09-17T20:19:29.112Z,7.47
2018-09-17T20:21:56.880Z,7.00
2018-09-17T20:24:24.675Z,7.05
2018-09-17T20:26:52.344Z,7.08
2018-09-17T20:29:20.105Z,7.67
2018-09-17T20:31:47.818Z,7.27
2018-09-17T20:34:15.448Z,6.83
2018-09-17T20:36:43.284Z,6.80
2018-09-17T20:39:11.026Z,7.43
2018-09-17T20:41:39.913Z,7.92
2018-09-17T20:44:07.627Z,7.62
2018-09-17T20:46:35.435Z,8.43
2018-09-17T20:49:04.103Z,7.62
2018-09-17T20:51:31.723Z,7.77
2018-09-17T20:53:59.780Z,8.20
2018-09-17T20:56:27.544Z,6.70
2018-09-17T20:58:55.214Z,7.23
2018-09-17T21:01:22.932Z,7.37
2018-09-17T21:03:50.532Z,7.47
2018-09-17T21:06:18.276Z,7.00
2018-09-17T21:08:45.948Z,7.40
2018-09-17T21:11:13.677Z,7.20
2018-09-17T21:13:41.476Z,7.80
2018-09-17T21:16:09.276Z,6.42
2018-09-17T21:18:36.890Z,7.37
2018-09-17T21:21:04.528Z,6.37
2018-09-17T21:23:32.317Z,6.80
2018-09-17T21:26:00.017Z,6.63
2018-09-17T21:28:27.758Z,6.53
2018-09-17T21:30:55.408Z,6.75
2018-09-17T21:33:23.161Z,6.77
2018-09-17T21:35:50.889Z,6.83
2018-09-17T21:38:18.541Z,7.97
2018-09-17T21:40:46.288Z,7.53
2018-09-17T21:43:14.970Z,6.83
2018-09-17T21:45:42.691Z,8.40
2018-09-17T21:48:10.368Z,7.43
2018-09-17T21:50:37.972Z,8.83
2018-09-17T21:53:05.822Z,7.83
2018-09-17T21:55:33.532Z,7.20
2018-09-17T21:58:01.165Z,8.60
2018-09-17T22:00:33.432Z,7.60
2018-09-17T22:03:01.025Z,6.67
2018-09-17T22:05:28.647Z,7.20
2018-09-17T22:07:56.885Z,7.50
2018-09-17T22:10:24.556Z,8.10
2018-09-17T22:12:52.263Z,7.40
2018-09-17T22:15:20.888Z,7.90
2018-09-17T22:17:48.643Z,8.33
2018-09-17T22:20:16.326Z,9.10
2018-09-17T22:22:44.014Z,8.35
2018-09-17T22:25:11.621Z,8.48
2018-09-17T22:27:39.345Z,8.10
2018-09-17T22:30:07.082Z,8.17
2018-09-17T22:32:34.743Z,9.10
2018-09-17T22:35:02.582Z,9.13
2018-09-17T22:37:30.277Z,8.80
2018-09-17T22:39:57.979Z,8.48
2018-09-17T22:42:26.023Z,9.00
2018-09-17T22:44:53.640Z,8.75
2018-09-17T22:47:21.366Z,8.93
2018-09-17T22:49:49.068Z,9.03
2018-09-17T22:52:16.735Z,8.47
2018-09-17T22:54:44.419Z,9.33
2018-09-17T22:57:12.178Z,8.47
2018-09-17T22:59:39.957Z,9.47
2018-09-17T23:02:07.587Z,8.73
2018-09-17T23:04:35.271Z,9.28
2018-09-17T23:07:02.941Z,9.20
2018-09-17T23:09:30.601Z,9.10
2018-09-17T23:11:58.305Z,8.57
2018-09-17T23:14:26.201Z,10.00
2018-09-17T23:16:53.901Z,9.20
2018-09-17T23:19:22.038Z,10.05
2018-09-17T23:21:49.750Z,10.00
2018-09-17T23:24:17.466Z,10.53
2018-09-17T23:26:45.153Z,9.53
2018-09-17T23:29:12.766Z,9.00
2018-09-17T23:31:40.404Z,10.50
2018-09-17T23:34:08.119Z,9.90
2018-09-17T23:36:35.793Z,9.80
2018-09-17T23:39:06.523Z,10.60
2018-09-17T23:41:34.139Z,10.37
2018-09-17T23:44:01.833Z,9.60
2018-09-17T23:46:29.457Z,9.25
2018-09-17T23:48:57.095Z,8.97
2018-09-17T23:51:24.668Z,8.60
2018-09-17T23:53:52.412Z,8.73
2018-09-17T23:56:20.052Z,8.78
2018-09-17T23:58:47.700Z,9.23
